KTOP/TOP METAR and TAF weather

Enter ICAO airport designator
Station Type Date Time Source
KTOP METAR 2019/12/08 00:53 UTC NOAA

KTOP 080053Z 16007KT 10SM CLR 07/M03 A3006 RMK AO2 SLP185 T00721033


Station Type Date Time Source
KTOP Decoded METAR 2019/12/08 00:53 UTC NOAA

TOPEKA BILLARD MUNICIPAL AIRPORT, KS, United States (KTOP) 39-04N 95-38W 268M
Dec 07, 2019 - 07:53 PM EST / 2019.12.08 0053 UTC
Wind: from the SSE (160 degrees) at 8 MPH (7 KT):0
Visibility: 10 mile(s):0
Sky conditions: clear
Temperature: 45.0 F (7.2 C)
Dew Point: 26.1 F (-3.3 C)
Relative Humidity: 47%
Pressure (altimeter): 30.06 in. Hg (1017 hPa)
ob: KTOP 080053Z 16007KT 10SM CLR 07/M03 A3006 RMK AO2 SLP185 T00721033
cycle: 1

Station Type Date Time Source
KTOP TAF 2019/12/07 18:36 UTC NOAA

TAF KTOP 071733Z 0718/0818 17011KT P6SM SKC
FM080300 18007KT P6SM FEW250 WS015/22040KT
FM081300 19010KT P6SM SCT015 BKN040

Example: see airport list